sensor_id;sensor_type;location;lat;lon;timestamp;P1;durP1;ratioP1;P2;durP2;ratioP2
40044;SDS011;25735;48.122;11.422;2023-02-15T00:01:30;21.45;;;13.82;;
40044;SDS011;25735;48.122;11.422;2023-02-15T00:03:56;21.00;;;14.95;;
40044;SDS011;25735;48.122;11.422;2023-02-15T00:06:21;21.83;;;13.45;;
40044;SDS011;25735;48.122;11.422;2023-02-15T00:08:47;26.50;;;16.13;;
40044;SDS011;25735;48.122;11.422;2023-02-15T00:11:14;20.70;;;13.70;;
40044;SDS011;25735;48.122;11.422;2023-02-15T00:13:41;28.55;;;15.25;;
40044;SDS011;25735;48.122;11.422;2023-02-15T00:16:11;21.67;;;13.70;;
40044;SDS011;25735;48.122;11.422;2023-02-15T00:18:40;19.15;;;13.13;;
40044;SDS011;25735;48.122;11.422;2023-02-15T00:21:06;22.77;;;13.82;;
40044;SDS011;25735;48.122;11.422;2023-02-15T00:23:33;18.40;;;11.77;;
40044;SDS011;25735;48.122;11.422;2023-02-15T00:26:09;17.60;;;11.73;;
40044;SDS011;25735;48.122;11.422;2023-02-15T00:28:36;19.05;;;12.27;;
40044;SDS011;25735;48.122;11.422;2023-02-15T00:31:05;19.90;;;12.32;;
40044;SDS011;25735;48.122;11.422;2023-02-15T00:33:31;18.55;;;11.98;;
40044;SDS011;25735;48.122;11.422;2023-02-15T00:35:57;17.92;;;11.40;;
40044;SDS011;25735;48.122;11.422;2023-02-15T00:38:23;18.65;;;11.90;;
40044;SDS011;25735;48.122;11.422;2023-02-15T00:40:52;18.08;;;12.18;;
40044;SDS011;25735;48.122;11.422;2023-02-15T00:43:21;20.63;;;12.55;;
40044;SDS011;25735;48.122;11.422;2023-02-15T00:45:47;17.08;;;12.77;;
40044;SDS011;25735;48.122;11.422;2023-02-15T00:48:13;21.50;;;13.05;;
40044;SDS011;25735;48.122;11.422;2023-02-15T00:50:38;23.48;;;13.18;;
40044;SDS011;25735;48.122;11.422;2023-02-15T00:53:03;19.55;;;13.32;;
40044;SDS011;25735;48.122;11.422;2023-02-15T00:55:29;19.30;;;12.48;;
40044;SDS011;25735;48.122;11.422;2023-02-15T00:57:54;19.52;;;11.77;;
40044;SDS011;25735;48.122;11.422;2023-02-15T01:00:19;20.63;;;12.20;;
40044;SDS011;25735;48.122;11.422;2023-02-15T01:02:44;22.02;;;13.48;;
40044;SDS011;25735;48.122;11.422;2023-02-15T01:05:10;19.08;;;11.77;;
40044;SDS011;25735;48.122;11.422;2023-02-15T01:07:35;21.70;;;12.93;;
40044;SDS011;25735;48.122;11.422;2023-02-15T01:10:00;18.95;;;13.13;;
40044;SDS011;25735;48.122;11.422;2023-02-15T01:12:25;16.25;;;11.70;;
40044;SDS011;25735;48.122;11.422;2023-02-15T01:14:51;17.58;;;11.93;;
40044;SDS011;25735;48.122;11.422;2023-02-15T01:17:16;21.27;;;12.38;;
40044;SDS011;25735;48.122;11.422;2023-02-15T01:19:41;25.23;;;13.57;;
40044;SDS011;25735;48.122;11.422;2023-02-15T01:22:06;18.00;;;12.55;;
40044;SDS011;25735;48.122;11.422;2023-02-15T01:24:32;18.02;;;11.95;;
40044;SDS011;25735;48.122;11.422;2023-02-15T01:26:57;17.52;;;11.57;;
40044;SDS011;25735;48.122;11.422;2023-02-15T01:29:22;18.85;;;11.75;;
40044;SDS011;25735;48.122;11.422;2023-02-15T01:31:48;18.42;;;11.45;;
40044;SDS011;25735;48.122;11.422;2023-02-15T01:34:13;24.13;;;11.70;;
40044;SDS011;25735;48.122;11.422;2023-02-15T01:36:38;19.25;;;12.70;;
40044;SDS011;25735;48.122;11.422;2023-02-15T01:39:03;18.67;;;12.05;;
40044;SDS011;25735;48.122;11.422;2023-02-15T01:41:29;35.17;;;16.90;;
40044;SDS011;25735;48.122;11.422;2023-02-15T01:43:58;19.83;;;12.88;;
40044;SDS011;25735;48.122;11.422;2023-02-15T01:46:35;16.60;;;11.20;;
40044;SDS011;25735;48.122;11.422;2023-02-15T01:49:15;25.95;;;12.65;;
40044;SDS011;25735;48.122;11.422;2023-02-15T01:51:43;28.98;;;13.48;;
40044;SDS011;25735;48.122;11.422;2023-02-15T01:54:18;18.75;;;12.63;;
40044;SDS011;25735;48.122;11.422;2023-02-15T01:56:58;15.68;;;10.52;;
40044;SDS011;25735;48.122;11.422;2023-02-15T01:59:27;14.80;;;11.23;;
40044;SDS011;25735;48.122;11.422;2023-02-15T02:01:53;14.75;;;10.40;;
40044;SDS011;25735;48.122;11.422;2023-02-15T02:04:25;25.58;;;11.32;;
40044;SDS011;25735;48.122;11.422;2023-02-15T02:07:00;34.00;;;12.63;;
40044;SDS011;25735;48.122;11.422;2023-02-15T02:09:26;24.35;;;10.98;;
40044;SDS011;25735;48.122;11.422;2023-02-15T02:11:51;35.72;;;13.63;;
40044;SDS011;25735;48.122;11.422;2023-02-15T02:14:19;29.90;;;11.27;;
40044;SDS011;25735;48.122;11.422;2023-02-15T02:19:54;16.00;;;10.63;;
40044;SDS011;25735;48.122;11.422;2023-02-15T02:22:47;14.60;;;10.32;;
40044;SDS011;25735;48.122;11.422;2023-02-15T02:28:32;14.23;;;9.75;;
40044;SDS011;25735;48.122;11.422;2023-02-15T02:39:40;12.03;;;8.37;;
40044;SDS011;25735;48.122;11.422;2023-02-15T02:42:16;15.57;;;9.68;;
40044;SDS011;25735;48.122;11.422;2023-02-15T02:44:54;11.68;;;9.15;;
40044;SDS011;25735;48.122;11.422;2023-02-15T02:50:16;20.38;;;9.60;;
40044;SDS011;25735;48.122;11.422;2023-02-15T02:52:51;17.10;;;9.43;;
40044;SDS011;25735;48.122;11.422;2023-02-15T02:55:29;14.15;;;9.35;;
40044;SDS011;25735;48.122;11.422;2023-02-15T02:58:08;14.10;;;10.02;;
40044;SDS011;25735;48.122;11.422;2023-02-15T03:01:12;11.88;;;9.13;;
40044;SDS011;25735;48.122;11.422;2023-02-15T03:06:24;12.98;;;9.40;;
40044;SDS011;25735;48.122;11.422;2023-02-15T03:08:54;14.48;;;9.98;;
40044;SDS011;25735;48.122;11.422;2023-02-15T03:11:25;35.25;;;11.55;;
40044;SDS011;25735;48.122;11.422;2023-02-15T03:13:51;16.70;;;11.50;;
40044;SDS011;25735;48.122;11.422;2023-02-15T03:16:16;17.25;;;11.15;;
40044;SDS011;25735;48.122;11.422;2023-02-15T03:18:51;16.67;;;10.88;;
40044;SDS011;25735;48.122;11.422;2023-02-15T03:21:23;14.02;;;9.65;;
40044;SDS011;25735;48.122;11.422;2023-02-15T03:23:57;12.35;;;9.55;;
40044;SDS011;25735;48.122;11.422;2023-02-15T03:26:28;14.60;;;10.60;;
40044;SDS011;25735;48.122;11.422;2023-02-15T03:28:55;37.70;;;12.43;;
40044;SDS011;25735;48.122;11.422;2023-02-15T03:31:21;14.38;;;9.98;;
40044;SDS011;25735;48.122;11.422;2023-02-15T03:33:58;19.58;;;10.95;;
40044;SDS011;25735;48.122;11.422;2023-02-15T03:36:29;15.35;;;9.88;;
40044;SDS011;25735;48.122;11.422;2023-02-15T03:39:07;15.57;;;11.10;;
40044;SDS011;25735;48.122;11.422;2023-02-15T03:41:48;15.65;;;11.05;;
40044;SDS011;25735;48.122;11.422;2023-02-15T03:44:41;15.32;;;11.27;;
40044;SDS011;25735;48.122;11.422;2023-02-15T03:47:15;16.60;;;10.38;;
40044;SDS011;25735;48.122;11.422;2023-02-15T03:49:45;13.95;;;9.63;;
40044;SDS011;25735;48.122;11.422;2023-02-15T03:52:16;14.23;;;9.52;;
40044;SDS011;25735;48.122;11.422;2023-02-15T03:54:43;22.38;;;11.68;;
40044;SDS011;25735;48.122;11.422;2023-02-15T03:57:27;22.15;;;11.50;;
40044;SDS011;25735;48.122;11.422;2023-02-15T04:05:37;15.93;;;10.90;;
40044;SDS011;25735;48.122;11.422;2023-02-15T04:08:03;14.35;;;10.48;;
40044;SDS011;25735;48.122;11.422;2023-02-15T04:10:29;24.85;;;11.55;;
40044;SDS011;25735;48.122;11.422;2023-02-15T04:13:13;16.33;;;10.48;;
40044;SDS011;25735;48.122;11.422;2023-02-15T04:15:38;18.92;;;11.95;;
40044;SDS011;25735;48.122;11.422;2023-02-15T04:18:22;16.38;;;11.20;;
40044;SDS011;25735;48.122;11.422;2023-02-15T04:21:07;27.45;;;11.95;;
40044;SDS011;25735;48.122;11.422;2023-02-15T04:23:51;21.95;;;11.32;;
40044;SDS011;25735;48.122;11.422;2023-02-15T04:26:34;14.68;;;9.73;;
40044;SDS011;25735;48.122;11.422;2023-02-15T04:29:00;19.67;;;11.73;;
40044;SDS011;25735;48.122;11.422;2023-02-15T04:31:25;19.48;;;10.40;;
40044;SDS011;25735;48.122;11.422;2023-02-15T04:33:50;15.25;;;10.50;;
40044;SDS011;25735;48.122;11.422;2023-02-15T04:36:15;14.02;;;10.18;;
40044;SDS011;25735;48.122;11.422;2023-02-15T04:38:41;14.88;;;10.57;;
40044;SDS011;25735;48.122;11.422;2023-02-15T04:41:06;14.35;;;10.20;;
40044;SDS011;25735;48.122;11.422;2023-02-15T04:43:31;17.23;;;9.93;;
40044;SDS011;25735;48.122;11.422;2023-02-15T04:45:56;20.88;;;12.00;;
40044;SDS011;25735;48.122;11.422;2023-02-15T04:48:23;18.52;;;10.60;;
40044;SDS011;25735;48.122;11.422;2023-02-15T04:50:48;15.25;;;10.50;;
40044;SDS011;25735;48.122;11.422;2023-02-15T04:53:14;16.52;;;9.85;;
40044;SDS011;25735;48.122;11.422;2023-02-15T04:55:41;14.13;;;10.32;;
40044;SDS011;25735;48.122;11.422;2023-02-15T04:58:06;14.23;;;9.52;;
40044;SDS011;25735;48.122;11.422;2023-02-15T05:00:32;18.50;;;11.52;;
40044;SDS011;25735;48.122;11.422;2023-02-15T05:02:57;25.25;;;10.95;;
40044;SDS011;25735;48.122;11.422;2023-02-15T05:05:22;11.85;;;9.23;;
40044;SDS011;25735;48.122;11.422;2023-02-15T05:07:47;13.75;;;8.75;;
40044;SDS011;25735;48.122;11.422;2023-02-15T05:10:13;12.35;;;9.32;;
40044;SDS011;25735;48.122;11.422;2023-02-15T05:12:38;10.70;;;8.18;;
40044;SDS011;25735;48.122;11.422;2023-02-15T05:15:03;12.25;;;9.15;;
40044;SDS011;25735;48.122;11.422;2023-02-15T05:17:28;14.35;;;9.43;;
40044;SDS011;25735;48.122;11.422;2023-02-15T05:19:54;12.15;;;8.65;;
40044;SDS011;25735;48.122;11.422;2023-02-15T05:22:19;12.60;;;8.95;;
40044;SDS011;25735;48.122;11.422;2023-02-15T05:24:44;14.55;;;9.27;;
40044;SDS011;25735;48.122;11.422;2023-02-15T05:27:28;15.40;;;9.50;;
40044;SDS011;25735;48.122;11.422;2023-02-15T05:30:12;15.77;;;10.52;;
40044;SDS011;25735;48.122;11.422;2023-02-15T05:32:38;12.77;;;9.27;;
40044;SDS011;25735;48.122;11.422;2023-02-15T05:35:04;12.65;;;9.10;;
40044;SDS011;25735;48.122;11.422;2023-02-15T05:37:30;13.98;;;10.40;;
40044;SDS011;25735;48.122;11.422;2023-02-15T05:39:55;14.38;;;10.05;;
40044;SDS011;25735;48.122;11.422;2023-02-15T05:42:21;12.18;;;8.98;;
40044;SDS011;25735;48.122;11.422;2023-02-15T05:44:46;25.77;;;9.30;;
40044;SDS011;25735;48.122;11.422;2023-02-15T05:47:11;34.53;;;10.15;;
40044;SDS011;25735;48.122;11.422;2023-02-15T05:49:36;32.63;;;12.23;;
40044;SDS011;25735;48.122;11.422;2023-02-15T05:52:02;12.73;;;9.25;;
40044;SDS011;25735;48.122;11.422;2023-02-15T05:54:27;13.65;;;8.98;;
40044;SDS011;25735;48.122;11.422;2023-02-15T05:56:53;20.42;;;10.68;;
40044;SDS011;25735;48.122;11.422;2023-02-15T05:59:18;38.13;;;11.85;;
40044;SDS011;25735;48.122;11.422;2023-02-15T06:01:44;12.73;;;8.57;;
40044;SDS011;25735;48.122;11.422;2023-02-15T06:04:09;13.23;;;9.70;;
40044;SDS011;25735;48.122;11.422;2023-02-15T06:06:34;13.00;;;9.07;;
40044;SDS011;25735;48.122;11.422;2023-02-15T06:09:00;14.75;;;9.70;;
40044;SDS011;25735;48.122;11.422;2023-02-15T06:11:26;15.48;;;9.95;;
40044;SDS011;25735;48.122;11.422;2023-02-15T06:13:51;14.82;;;9.98;;
40044;SDS011;25735;48.122;11.422;2023-02-15T06:16:16;14.70;;;10.40;;
40044;SDS011;25735;48.122;11.422;2023-02-15T06:18:41;13.35;;;9.10;;
40044;SDS011;25735;48.122;11.422;2023-02-15T06:21:07;20.33;;;10.55;;
40044;SDS011;25735;48.122;11.422;2023-02-15T06:23:33;23.50;;;10.75;;
40044;SDS011;25735;48.122;11.422;2023-02-15T06:25:58;14.77;;;10.50;;
40044;SDS011;25735;48.122;11.422;2023-02-15T06:28:23;16.15;;;10.80;;
40044;SDS011;25735;48.122;11.422;2023-02-15T06:30:50;11.77;;;8.65;;
40044;SDS011;25735;48.122;11.422;2023-02-15T06:33:15;15.55;;;10.25;;
40044;SDS011;25735;48.122;11.422;2023-02-15T06:35:41;14.38;;;9.73;;
40044;SDS011;25735;48.122;11.422;2023-02-15T06:38:06;35.85;;;11.68;;
40044;SDS011;25735;48.122;11.422;2023-02-15T06:40:31;15.15;;;10.75;;
40044;SDS011;25735;48.122;11.422;2023-02-15T06:42:56;17.50;;;10.65;;
40044;SDS011;25735;48.122;11.422;2023-02-15T06:45:21;16.48;;;10.80;;
40044;SDS011;25735;48.122;11.422;2023-02-15T06:47:47;19.50;;;12.20;;
40044;SDS011;25735;48.122;11.422;2023-02-15T06:50:12;23.20;;;11.88;;
40044;SDS011;25735;48.122;11.422;2023-02-15T06:52:37;15.18;;;11.13;;
40044;SDS011;25735;48.122;11.422;2023-02-15T06:55:03;16.48;;;11.77;;
40044;SDS011;25735;48.122;11.422;2023-02-15T06:57:28;18.77;;;11.75;;
40044;SDS011;25735;48.122;11.422;2023-02-15T06:59:53;16.83;;;10.95;;
40044;SDS011;25735;48.122;11.422;2023-02-15T07:02:18;17.52;;;11.50;;
40044;SDS011;25735;48.122;11.422;2023-02-15T07:04:44;17.30;;;11.00;;
40044;SDS011;25735;48.122;11.422;2023-02-15T07:07:10;14.85;;;10.05;;
40044;SDS011;25735;48.122;11.422;2023-02-15T07:09:36;17.85;;;11.77;;
40044;SDS011;25735;48.122;11.422;2023-02-15T07:12:01;17.70;;;11.45;;
40044;SDS011;25735;48.122;11.422;2023-02-15T07:14:46;17.98;;;10.55;;
40044;SDS011;25735;48.122;11.422;2023-02-15T07:17:11;16.33;;;10.80;;
40044;SDS011;25735;48.122;11.422;2023-02-15T07:19:36;15.63;;;10.75;;
40044;SDS011;25735;48.122;11.422;2023-02-15T07:22:01;17.30;;;11.15;;
40044;SDS011;25735;48.122;11.422;2023-02-15T07:24:28;15.35;;;11.25;;
40044;SDS011;25735;48.122;11.422;2023-02-15T07:26:54;12.98;;;9.77;;
40044;SDS011;25735;48.122;11.422;2023-02-15T07:29:19;15.30;;;10.38;;
40044;SDS011;25735;48.122;11.422;2023-02-15T07:31:44;19.92;;;13.13;;
40044;SDS011;25735;48.122;11.422;2023-02-15T07:34:10;13.93;;;9.55;;
40044;SDS011;25735;48.122;11.422;2023-02-15T07:36:35;15.45;;;9.20;;
40044;SDS011;25735;48.122;11.422;2023-02-15T07:39:01;13.68;;;9.63;;
40044;SDS011;25735;48.122;11.422;2023-02-15T07:41:26;12.50;;;8.55;;
40044;SDS011;25735;48.122;11.422;2023-02-15T07:43:51;13.65;;;9.88;;
40044;SDS011;25735;48.122;11.422;2023-02-15T07:46:17;15.65;;;10.60;;
40044;SDS011;25735;48.122;11.422;2023-02-15T07:48:43;14.18;;;9.45;;
40044;SDS011;25735;48.122;11.422;2023-02-15T07:51:09;16.15;;;11.75;;
40044;SDS011;25735;48.122;11.422;2023-02-15T07:53:36;17.08;;;10.57;;
40044;SDS011;25735;48.122;11.422;2023-02-15T07:56:02;18.50;;;11.20;;
40044;SDS011;25735;48.122;11.422;2023-02-15T07:58:29;15.50;;;10.80;;
40044;SDS011;25735;48.122;11.422;2023-02-15T08:01:13;15.45;;;10.43;;
40044;SDS011;25735;48.122;11.422;2023-02-15T08:03:39;15.00;;;10.70;;
40044;SDS011;25735;48.122;11.422;2023-02-15T08:06:05;14.18;;;9.77;;
40044;SDS011;25735;48.122;11.422;2023-02-15T08:08:30;18.45;;;11.25;;
40044;SDS011;25735;48.122;11.422;2023-02-15T08:13:56;18.50;;;11.30;;
40044;SDS011;25735;48.122;11.422;2023-02-15T08:16:34;19.90;;;12.60;;
40044;SDS011;25735;48.122;11.422;2023-02-15T08:19:10;18.02;;;11.85;;
40044;SDS011;25735;48.122;11.422;2023-02-15T08:21:41;15.27;;;11.30;;
40044;SDS011;25735;48.122;11.422;2023-02-15T08:24:08;20.23;;;13.32;;
40044;SDS011;25735;48.122;11.422;2023-02-15T08:26:35;19.40;;;12.70;;
40044;SDS011;25735;48.122;11.422;2023-02-15T08:29:01;17.70;;;11.57;;
40044;SDS011;25735;48.122;11.422;2023-02-15T08:31:27;21.65;;;13.02;;
40044;SDS011;25735;48.122;11.422;2023-02-15T08:33:53;19.85;;;12.70;;
40044;SDS011;25735;48.122;11.422;2023-02-15T08:36:21;15.50;;;11.05;;
40044;SDS011;25735;48.122;11.422;2023-02-15T08:38:48;19.05;;;11.32;;
40044;SDS011;25735;48.122;11.422;2023-02-15T08:41:20;16.38;;;11.93;;
40044;SDS011;25735;48.122;11.422;2023-02-15T08:43:49;19.98;;;12.73;;
40044;SDS011;25735;48.122;11.422;2023-02-15T08:46:17;23.55;;;12.63;;
40044;SDS011;25735;48.122;11.422;2023-02-15T08:48:43;18.75;;;12.93;;
40044;SDS011;25735;48.122;11.422;2023-02-15T08:51:10;18.00;;;12.25;;
40044;SDS011;25735;48.122;11.422;2023-02-15T08:53:47;19.80;;;12.20;;
40044;SDS011;25735;48.122;11.422;2023-02-15T08:56:14;18.00;;;12.88;;
40044;SDS011;25735;48.122;11.422;2023-02-15T08:58:40;17.95;;;11.82;;
40044;SDS011;25735;48.122;11.422;2023-02-15T09:01:09;22.13;;;13.40;;
40044;SDS011;25735;48.122;11.422;2023-02-15T09:03:38;24.13;;;14.32;;
40044;SDS011;25735;48.122;11.422;2023-02-15T09:06:04;23.13;;;15.10;;
40044;SDS011;25735;48.122;11.422;2023-02-15T09:08:30;22.63;;;16.00;;
40044;SDS011;25735;48.122;11.422;2023-02-15T09:11:06;17.70;;;12.68;;
40044;SDS011;25735;48.122;11.422;2023-02-15T09:13:34;18.80;;;13.32;;
40044;SDS011;25735;48.122;11.422;2023-02-15T09:16:02;20.63;;;14.48;;
40044;SDS011;25735;48.122;11.422;2023-02-15T09:18:29;20.65;;;13.52;;
40044;SDS011;25735;48.122;11.422;2023-02-15T09:20:56;21.50;;;13.80;;
40044;SDS011;25735;48.122;11.422;2023-02-15T09:23:21;19.73;;;14.20;;
40044;SDS011;25735;48.122;11.422;2023-02-15T09:25:47;20.60;;;13.90;;
40044;SDS011;25735;48.122;11.422;2023-02-15T09:28:12;18.63;;;13.20;;
40044;SDS011;25735;48.122;11.422;2023-02-15T09:30:37;18.65;;;13.80;;
40044;SDS011;25735;48.122;11.422;2023-02-15T09:33:03;19.60;;;13.95;;
40044;SDS011;25735;48.122;11.422;2023-02-15T09:35:28;20.67;;;14.40;;
40044;SDS011;25735;48.122;11.422;2023-02-15T09:37:53;19.52;;;13.35;;
40044;SDS011;25735;48.122;11.422;2023-02-15T09:40:18;18.83;;;12.95;;
40044;SDS011;25735;48.122;11.422;2023-02-15T09:48:16;16.85;;;11.75;;
40044;SDS011;25735;48.122;11.422;2023-02-15T09:51:00;17.10;;;13.40;;
40044;SDS011;25735;48.122;11.422;2023-02-15T09:56:39;19.45;;;12.90;;
40044;SDS011;25735;48.122;11.422;2023-02-15T09:59:12;16.58;;;11.93;;
40044;SDS011;25735;48.122;11.422;2023-02-15T10:10:04;18.00;;;13.70;;
40044;SDS011;25735;48.122;11.422;2023-02-15T10:15:34;16.60;;;11.88;;
40044;SDS011;25735;48.122;11.422;2023-02-15T10:20:56;18.38;;;13.07;;
40044;SDS011;25735;48.122;11.422;2023-02-15T10:26:43;16.33;;;12.73;;
40044;SDS011;25735;48.122;11.422;2023-02-15T10:37:14;16.73;;;12.00;;
40044;SDS011;25735;48.122;11.422;2023-02-15T10:56:40;17.05;;;11.48;;
40044;SDS011;25735;48.122;11.422;2023-02-15T11:02:02;18.20;;;11.68;;
40044;SDS011;25735;48.122;11.422;2023-02-15T11:07:04;18.10;;;12.18;;
40044;SDS011;25735;48.122;11.422;2023-02-15T11:09:36;18.65;;;13.00;;
40044;SDS011;25735;48.122;11.422;2023-02-15T11:12:08;17.83;;;13.15;;
40044;SDS011;25735;48.122;11.422;2023-02-15T11:14:47;18.35;;;14.43;;
40044;SDS011;25735;48.122;11.422;2023-02-15T11:17:24;17.42;;;12.35;;
40044;SDS011;25735;48.122;11.422;2023-02-15T11:22:30;15.95;;;11.88;;
40044;SDS011;25735;48.122;11.422;2023-02-15T11:24:58;17.90;;;13.25;;
40044;SDS011;25735;48.122;11.422;2023-02-15T11:27:26;16.02;;;12.43;;
40044;SDS011;25735;48.122;11.422;2023-02-15T11:30:05;16.30;;;13.82;;
40044;SDS011;25735;48.122;11.422;2023-02-15T11:32:37;16.98;;;13.55;;
40044;SDS011;25735;48.122;11.422;2023-02-15T11:37:46;17.17;;;12.98;;
40044;SDS011;25735;48.122;11.422;2023-02-15T11:40:22;15.25;;;12.45;;
40044;SDS011;25735;48.122;11.422;2023-02-15T11:42:51;17.65;;;13.30;;
40044;SDS011;25735;48.122;11.422;2023-02-15T11:45:26;18.20;;;13.57;;
40044;SDS011;25735;48.122;11.422;2023-02-15T11:47:54;20.15;;;14.68;;
40044;SDS011;25735;48.122;11.422;2023-02-15T11:50:22;18.13;;;13.32;;
40044;SDS011;25735;48.122;11.422;2023-02-15T11:52:50;18.27;;;13.15;;
40044;SDS011;25735;48.122;11.422;2023-02-15T11:55:19;17.85;;;12.57;;
40044;SDS011;25735;48.122;11.422;2023-02-15T11:57:50;20.25;;;13.90;;
40044;SDS011;25735;48.122;11.422;2023-02-15T12:00:32;15.73;;;12.20;;
40044;SDS011;25735;48.122;11.422;2023-02-15T12:03:12;17.00;;;13.18;;
40044;SDS011;25735;48.122;11.422;2023-02-15T12:05:43;17.13;;;13.55;;
40044;SDS011;25735;48.122;11.422;2023-02-15T12:08:17;18.02;;;12.82;;
40044;SDS011;25735;48.122;11.422;2023-02-15T12:10:48;16.92;;;12.90;;
40044;SDS011;25735;48.122;11.422;2023-02-15T12:13:59;17.17;;;12.77;;
40044;SDS011;25735;48.122;11.422;2023-02-15T12:16:28;19.08;;;14.13;;
40044;SDS011;25735;48.122;11.422;2023-02-15T12:18:57;18.27;;;13.98;;
40044;SDS011;25735;48.122;11.422;2023-02-15T12:21:28;16.35;;;14.00;;
40044;SDS011;25735;48.122;11.422;2023-02-15T12:24:03;16.83;;;13.27;;
40044;SDS011;25735;48.122;11.422;2023-02-15T12:26:45;16.23;;;12.73;;
40044;SDS011;25735;48.122;11.422;2023-02-15T12:29:22;19.63;;;13.93;;
40044;SDS011;25735;48.122;11.422;2023-02-15T12:31:52;16.80;;;13.05;;
40044;SDS011;25735;48.122;11.422;2023-02-15T12:34:20;15.45;;;12.88;;
40044;SDS011;25735;48.122;11.422;2023-02-15T12:36:49;15.00;;;13.00;;
40044;SDS011;25735;48.122;11.422;2023-02-15T12:39:22;17.27;;;15.05;;
40044;SDS011;25735;48.122;11.422;2023-02-15T12:44:19;16.23;;;12.90;;
40044;SDS011;25735;48.122;11.422;2023-02-15T12:49:36;18.63;;;14.77;;
40044;SDS011;25735;48.122;11.422;2023-02-15T12:52:10;16.75;;;14.40;;
40044;SDS011;25735;48.122;11.422;2023-02-15T12:54:48;19.17;;;13.95;;
40044;SDS011;25735;48.122;11.422;2023-02-15T12:57:22;17.70;;;13.48;;
40044;SDS011;25735;48.122;11.422;2023-02-15T13:02:43;16.42;;;13.63;;
40044;SDS011;25735;48.122;11.422;2023-02-15T13:07:49;19.13;;;14.50;;
40044;SDS011;25735;48.122;11.422;2023-02-15T13:10:21;18.38;;;15.32;;
40044;SDS011;25735;48.122;11.422;2023-02-15T13:12:49;23.70;;;16.17;;
40044;SDS011;25735;48.122;11.422;2023-02-15T13:15:25;19.38;;;14.32;;
40044;SDS011;25735;48.122;11.422;2023-02-15T13:18:02;20.23;;;14.43;;
40044;SDS011;25735;48.122;11.422;2023-02-15T13:20:29;16.20;;;13.27;;
40044;SDS011;25735;48.122;11.422;2023-02-15T13:22:58;15.88;;;13.38;;
40044;SDS011;25735;48.122;11.422;2023-02-15T13:25:31;17.45;;;13.48;;
40044;SDS011;25735;48.122;11.422;2023-02-15T13:28:12;16.52;;;13.23;;
40044;SDS011;25735;48.122;11.422;2023-02-15T13:30:42;16.35;;;14.48;;
40044;SDS011;25735;48.122;11.422;2023-02-15T13:41:16;16.23;;;14.53;;
40044;SDS011;25735;48.122;11.422;2023-02-15T14:05:01;19.23;;;13.20;;
40044;SDS011;25735;48.122;11.422;2023-02-15T14:10:44;18.33;;;14.20;;
40044;SDS011;25735;48.122;11.422;2023-02-15T14:13:29;15.93;;;14.15;;
40044;SDS011;25735;48.122;11.422;2023-02-15T14:18:47;14.27;;;12.88;;
40044;SDS011;25735;48.122;11.422;2023-02-15T14:21:27;13.20;;;11.90;;
40044;SDS011;25735;48.122;11.422;2023-02-15T14:24:30;15.85;;;13.32;;
40044;SDS011;25735;48.122;11.422;2023-02-15T14:27:22;16.23;;;14.05;;
40044;SDS011;25735;48.122;11.422;2023-02-15T14:29:59;15.48;;;13.43;;
40044;SDS011;25735;48.122;11.422;2023-02-15T14:32:33;15.20;;;13.70;;
40044;SDS011;25735;48.122;11.422;2023-02-15T14:35:04;14.38;;;12.93;;
40044;SDS011;25735;48.122;11.422;2023-02-15T14:49:11;17.83;;;13.85;;
40044;SDS011;25735;48.122;11.422;2023-02-15T14:54:52;15.20;;;13.32;;
40044;SDS011;25735;48.122;11.422;2023-02-15T14:59:27;19.92;;;15.27;;
40044;SDS011;25735;48.122;11.422;2023-02-15T15:02:08;19.77;;;15.40;;
40044;SDS011;25735;48.122;11.422;2023-02-15T15:04:39;16.65;;;14.13;;
40044;SDS011;25735;48.122;11.422;2023-02-15T15:07:10;18.00;;;14.25;;
40044;SDS011;25735;48.122;11.422;2023-02-15T15:09:45;17.27;;;13.43;;
40044;SDS011;25735;48.122;11.422;2023-02-15T15:12:14;18.60;;;14.30;;
40044;SDS011;25735;48.122;11.422;2023-02-15T15:14:45;16.45;;;13.73;;
40044;SDS011;25735;48.122;11.422;2023-02-15T15:17:12;19.08;;;14.23;;
40044;SDS011;25735;48.122;11.422;2023-02-15T15:19:57;21.08;;;14.80;;
40044;SDS011;25735;48.122;11.422;2023-02-15T15:22:25;16.75;;;13.30;;
40044;SDS011;25735;48.122;11.422;2023-02-15T15:24:53;17.98;;;12.85;;
40044;SDS011;25735;48.122;11.422;2023-02-15T15:32:49;16.85;;;13.50;;
40044;SDS011;25735;48.122;11.422;2023-02-15T15:35:33;19.73;;;13.45;;
40044;SDS011;25735;48.122;11.422;2023-02-15T15:38:13;18.48;;;13.23;;
40044;SDS011;25735;48.122;11.422;2023-02-15T15:40:52;25.58;;;21.02;;
40044;SDS011;25735;48.122;11.422;2023-02-15T15:43:31;25.23;;;19.05;;
40044;SDS011;25735;48.122;11.422;2023-02-15T15:48:44;20.42;;;15.35;;
40044;SDS011;25735;48.122;11.422;2023-02-15T15:51:20;19.35;;;15.52;;
40044;SDS011;25735;48.122;11.422;2023-02-15T15:56:22;20.90;;;14.35;;
40044;SDS011;25735;48.122;11.422;2023-02-15T15:58:54;20.63;;;14.73;;
40044;SDS011;25735;48.122;11.422;2023-02-15T16:01:26;15.95;;;14.27;;
40044;SDS011;25735;48.122;11.422;2023-02-15T16:03:54;23.20;;;16.08;;
40044;SDS011;25735;48.122;11.422;2023-02-15T16:06:28;19.48;;;14.40;;
40044;SDS011;25735;48.122;11.422;2023-02-15T16:11:53;17.58;;;14.48;;
40044;SDS011;25735;48.122;11.422;2023-02-15T16:14:26;19.27;;;14.80;;
40044;SDS011;25735;48.122;11.422;2023-02-15T16:16:59;20.85;;;16.08;;
40044;SDS011;25735;48.122;11.422;2023-02-15T16:19:28;17.90;;;14.88;;
40044;SDS011;25735;48.122;11.422;2023-02-15T16:21:57;22.15;;;16.17;;
40044;SDS011;25735;48.122;11.422;2023-02-15T16:24:34;25.80;;;16.17;;
40044;SDS011;25735;48.122;11.422;2023-02-15T16:29:50;23.05;;;16.52;;
40044;SDS011;25735;48.122;11.422;2023-02-15T16:32:17;21.27;;;15.75;;
40044;SDS011;25735;48.122;11.422;2023-02-15T16:34:53;23.35;;;16.02;;
40044;SDS011;25735;48.122;11.422;2023-02-15T16:37:26;23.92;;;16.27;;
40044;SDS011;25735;48.122;11.422;2023-02-15T16:40:01;24.75;;;16.27;;
40044;SDS011;25735;48.122;11.422;2023-02-15T16:42:27;23.30;;;16.75;;
40044;SDS011;25735;48.122;11.422;2023-02-15T16:45:35;23.92;;;17.08;;
40044;SDS011;25735;48.122;11.422;2023-02-15T16:47:44;27.33;;;16.17;;
40044;SDS011;25735;48.122;11.422;2023-02-15T16:50:18;19.98;;;15.73;;
40044;SDS011;25735;48.122;11.422;2023-02-15T16:52:45;23.33;;;17.23;;
40044;SDS011;25735;48.122;11.422;2023-02-15T16:55:19;26.23;;;18.17;;
40044;SDS011;25735;48.122;11.422;2023-02-15T16:57:47;26.25;;;16.92;;
40044;SDS011;25735;48.122;11.422;2023-02-15T17:00:30;24.33;;;17.55;;
40044;SDS011;25735;48.122;11.422;2023-02-15T17:03:02;25.60;;;17.98;;
40044;SDS011;25735;48.122;11.422;2023-02-15T17:05:30;25.13;;;17.45;;
40044;SDS011;25735;48.122;11.422;2023-02-15T17:14:09;26.95;;;18.10;;
40044;SDS011;25735;48.122;11.422;2023-02-15T17:19:15;26.17;;;19.23;;
40044;SDS011;25735;48.122;11.422;2023-02-15T17:22:01;28.20;;;17.77;;
40044;SDS011;25735;48.122;11.422;2023-02-15T17:27:02;26.95;;;19.58;;
40044;SDS011;25735;48.122;11.422;2023-02-15T17:29:33;24.13;;;17.67;;